Flugplatz Soest/Bad Sassendorf

Für EDLZ sind keine METAR/TAF Berichte vorhanden.
Es werden die Flugwettermeldungen vom Flugplatz Paderborn Lippstadt in 28 km Entfernung angezeigt.

Bericht für EDLP

vom 23.08. um 12:50 UTC

Wind 4 kt aus 100°

Sichtweite 10 km oder mehr

gute Sicht, keine Wolken < 5000 ft, keine CB, keine Wettererscheinungen (CAVOK)

Temperatur 27.0°C

Taupunkt 7.0°C

Luftfeuchtigkeit 28%

Luftdruck 1025 hPa

EDLP 231250Z 10004KT 040V160 CAVOK 27/07 Q1025

Prognose für EDLP

vom 23.08. um 00:00 UTC

Zwischen 00:00 UTC und 00:00 UTC

Wind 5 kt aus 40°

Sichtweite 10 km oder mehr

keine signifikanten Wettererscheinungen

keine Wolken


Zwischen 00:00 und 00:00 UTC übergehend zu

Wind 4 kt aus 140°

Sichtweite 10 km oder mehr

keine signifikanten Wettererscheinungen

keine Wolken


Am 24.08. zwischen 00:00 und 00:00 UTC übergehend zu

Wind 9 kt aus 100°

Sichtweite 10 km oder mehr

keine signifikanten Wettererscheinungen

keine Wolken

TAF EDLP 231100Z 2312/2412 04005KT CAVOK BECMG 2318/2321 14004KT BECMG 2406/2409 10009KT
Impressum